Time;durP1;ratioP1;P1;durP2;ratioP2;P2;SDS_P1;SDS_P2;PMS_P1;PMS_P2;Temp;Humidity;BMP_temperature;BMP_pressure;BME280_temperature;BME280_humidity;BME280_pressure;Samples;Min_cycle;Max_cycle;Signal;HPM_P1;HPM_P2
2022/07/03 00:07:20;;;;;;;15.40;11.20;;;;;;;13.25;72.62;99249.45;433624;1268;111757;-41
2022/07/03 00:17:28;;;;;;;16.20;10.90;;;;;;;13.29;72.65;99235.49;433585;1269;108791;-40
2022/07/03 00:27:35;;;;;;;12.90;11.20;;;;;;;13.36;72.97;99228.98;433667;1268;96654;-40
2022/07/03 00:37:43;;;;;;;16.20;12.00;;;;;;;13.49;73.14;99221.02;433427;1268;108861;-44
2022/07/03 00:47:50;;;;;;;14.70;10.80;;;;;;;13.34;72.94;99225.64;433773;1268;97924;-40
2022/07/03 00:57:59;;;;;;;15.30;12.10;;;;;;;13.06;72.85;99225.17;433691;1268;110525;-42
2022/07/03 01:08:13;;;;;;;12.70;11.30;;;;;;;12.80;72.99;99221.96;433899;1258;108791;-42
2022/07/03 01:18:30;;;;;;;12.80;9.70;;;;;;;12.73;73.04;99226.13;433052;1270;98002;-40
2022/07/03 01:28:42;;;;;;;12.30;10.20;;;;;;;12.68;73.38;99223.89;433200;1269;111046;-40
2022/07/03 01:38:51;;;;;;;12.20;10.00;;;;;;;12.84;73.66;99206.56;433070;1270;108813;-40
2022/07/03 01:48:57;;;;;;;;;;;;;;;12.81;73.76;99197.58;432968;1270;98090;-42
2022/07/03 01:59:05;;;;;;;19.50;14.00;;;;;;;12.87;74.12;99192.34;432977;1270;108853;-44
2022/07/03 02:09:15;;;;;;;16.80;13.20;;;;;;;12.90;74.23;99195.38;433124;1269;97911;-43
2022/07/03 02:19:35;;;;;;;19.90;13.00;;;;;;;12.91;74.52;99187.60;433305;1270;111150;-43
2022/07/03 02:29:42;;;;;;;20.00;13.00;;;;;;;12.99;74.54;99190.05;433074;1270;107397;-42
2022/07/03 02:39:54;;;;;;;17.00;12.40;;;;;;;12.94;74.63;99184.25;432941;1270;97955;-42
2022/07/03 02:50:02;;;;;;;19.00;12.50;;;;;;;13.10;74.97;99176.45;433015;1269;108636;-43
2022/07/03 03:00:11;;;;;;;20.80;14.40;;;;;;;13.18;74.84;99167.98;433058;1269;97901;-41
2022/07/03 03:10:21;;;;;;;21.20;12.70;;;;;;;13.18;74.75;99165.05;433003;1270;110106;-41
2022/07/03 03:20:26;;;;;;;16.00;11.80;;;;;;;13.36;74.69;99172.76;433120;1269;108805;-42
2022/07/03 03:30:33;;;;;;;15.70;12.50;;;;;;;14.16;74.53;99171.61;433042;1269;97926;-42
2022/07/03 03:40:41;;;;;;;14.70;12.40;;;;;;;16.26;73.07;99175.67;432962;1270;111024;-41
2022/07/03 03:50:48;;;;;;;15.20;12.30;;;;;;;16.19;72.46;99183.94;433003;1269;108853;-42
2022/07/03 04:00:56;;;;;;;17.30;12.40;;;;;;;16.94;71.94;99169.61;432988;1269;97830;-41
2022/07/03 04:11:04;;;;;;;16.40;12.90;;;;;;;17.92;70.75;99162.70;433023;1270;111072;-43
2022/07/03 04:21:11;;;;;;;12.50;10.90;;;;;;;19.28;70.33;99151.72;433173;1270;108842;-43
2022/07/03 04:31:18;;;;;;;10.20;8.80;;;;;;;22.41;68.87;99150.63;432911;1269;97897;-40
2022/07/03 04:41:26;;;;;;;8.70;7.60;;;;;;;24.86;66.64;99151.30;433090;1270;111169;-41
2022/07/03 04:51:33;;;;;;;9.00;6.80;;;;;;;26.26;63.88;99150.97;433205;1269;108951;-45
2022/07/03 05:01:41;;;;;;;5.50;5.10;;;;;;;26.29;61.97;99149.02;433247;1270;97894;-44
2022/07/03 05:11:48;;;;;;;6.90;4.50;;;;;;;25.65;60.33;99145.33;433026;1269;108827;-43
2022/07/03 05:21:56;;;;;;;5.70;4.50;;;;;;;24.14;59.20;99139.59;432723;1271;98000;-42
2022/07/03 05:32:03;;;;;;;4.90;4.30;;;;;;;22.70;59.46;99133.52;433301;1269;111169;-44
2022/07/03 05:42:10;;;;;;;7.90;4.10;;;;;;;21.50;61.25;99134.14;433224;1269;108822;-41
2022/07/03 05:52:17;;;;;;;7.50;4.90;;;;;;;21.22;61.80;99138.53;433144;1270;97902;-45
2022/07/03 06:02:24;;;;;;;8.60;4.00;;;;;;;21.59;62.37;99132.98;433284;1269;107831;-45
2022/07/03 06:12:32;;;;;;;8.70;3.50;;;;;;;21.52;61.48;99145.04;433397;1269;97942;-42
2022/07/03 06:22:38;;;;;;;3.70;3.20;;;;;;;21.75;61.01;99155.49;433262;1270;111122;-43
2022/07/03 06:32:45;;;;;;;4.40;2.70;;;;;;;20.97;61.13;99146.21;433082;1271;108810;-44
2022/07/03 06:42:52;;;;;;;4.20;2.90;;;;;;;21.00;62.03;99137.85;433356;1270;98021;-40
2022/07/03 06:53:00;;;;;;;3.90;2.80;;;;;;;21.83;61.20;99124.84;433289;1270;108455;-42
2022/07/03 07:03:08;;;;;;;4.40;3.20;;;;;;;22.09;59.65;99121.95;433265;1270;96626;-46
2022/07/03 07:13:15;;;;;;;8.90;3.70;;;;;;;21.67;59.78;99111.46;433372;1269;111180;-40
2022/07/03 07:23:21;;;;;;;;;;;;;;;21.71;59.39;99106.98;433213;1271;109301;-43
2022/07/03 07:33:28;;;;;;;3.50;2.50;;;;;;;21.90;59.47;99101.06;433137;1271;97922;-43
2022/07/03 07:43:36;;;;;;;3.90;2.70;;;;;;;22.89;58.25;99094.95;433213;1270;110939;-41
2022/07/03 07:53:44;;;;;;;4.90;2.50;;;;;;;23.37;57.26;99090.55;433145;1271;108957;-41
2022/07/03 08:14:18;;;;;;;3.30;2.60;;;;;;;22.62;56.65;99089.17;432622;1271;111074;-42
2022/07/03 08:24:25;;;;;;;3.40;3.20;;;;;;;23.14;56.96;99084.89;432837;1269;108948;-42
2022/07/03 08:34:33;;;;;;;4.20;3.70;;;;;;;23.53;55.70;99090.34;432736;1271;98017;-42
2022/07/03 08:44:40;;;;;;;3.50;3.20;;;;;;;23.52;56.20;99084.05;432617;1269;111119;-41
2022/07/03 08:54:48;;;;;;;4.20;3.60;;;;;;;24.12;55.29;99077.20;432330;1269;525036;-41
2022/07/03 09:04:54;;;;;;;;;;;;;;;24.42;54.40;99069.06;432632;1270;98575;-41
2022/07/03 09:15:03;;;;;;;6.50;2.60;;;;;;;24.25;53.60;99069.97;432684;1270;111000;-43
2022/07/03 09:25:15;;;;;;;4.80;2.60;;;;;;;24.64;52.54;99053.11;432606;1270;108788;-42
2022/07/03 09:35:22;;;;;;;3.30;3.00;;;;;;;24.87;52.54;99050.92;432963;1271;97921;-42
2022/07/03 09:45:51;;;;;;;4.10;2.20;;;;;;;24.98;51.81;99049.33;432697;1269;97925;-43
2022/07/03 09:55:59;;;;;;;2.60;2.40;;;;;;;24.34;51.76;99047.52;432630;1269;111171;-44
2022/07/03 10:06:05;;;;;;;3.00;2.80;;;;;;;24.61;50.86;99039.73;432903;1270;108893;-44
2022/07/03 10:16:14;;;;;;;5.50;3.10;;;;;;;24.07;51.48;99039.77;432842;1269;97938;-41
2022/07/03 10:26:22;;;;;;;3.50;2.60;;;;;;;24.76;50.84;99023.95;432959;1269;111216;-41
2022/07/03 10:36:31;;;;;;;2.70;2.50;;;;;;;25.01;49.68;99010.34;432715;1269;108813;-42
2022/07/03 10:46:39;;;;;;;2.30;2.10;;;;;;;24.72;49.05;98995.42;432653;1270;97891;-41
2022/07/03 10:57:20;;;;;;;2.30;2.00;;;;;;;24.55;49.15;98992.71;432755;1269;111038;-43
2022/07/03 11:07:29;;;;;;;1.90;1.80;;;;;;;24.59;48.59;98977.62;432904;1270;108903;-42
2022/07/03 11:17:36;;;;;;;1.40;1.40;;;;;;;24.69;49.38;98963.05;433026;1270;97892;-45
2022/07/03 11:27:47;;;;;;;2.80;2.00;;;;;;;25.36;47.95;98962.59;433018;1270;110371;-42
2022/07/03 11:37:56;;;;;;;4.20;3.00;;;;;;;25.06;47.13;98947.76;432584;1269;108814;-42
2022/07/03 11:48:07;;;;;;;2.40;2.20;;;;;;;25.13;47.48;98949.02;432796;1269;98012;-44
2022/07/03 11:58:14;;;;;;;2.80;2.60;;;;;;;25.23;47.38;98958.45;432872;1270;111315;-42
2022/07/03 12:08:29;;;;;;;3.80;2.60;;;;;;;26.22;47.40;98934.02;432597;1270;108831;-42
2022/07/03 12:18:47;;;;;;;3.20;3.00;;;;;;;26.03;45.77;98922.17;432898;1269;99532;-42
2022/07/03 12:28:54;;;;;;;3.30;2.90;;;;;;;25.48;46.61;98921.50;432930;1270;111102;-44
2022/07/03 12:39:02;;;;;;;2.80;2.60;;;;;;;25.89;46.67;98912.33;432828;1270;108823;-41
2022/07/03 12:49:13;;;;;;;3.60;3.30;;;;;;;26.09;45.97;98900.91;432897;1270;97997;-43
2022/07/03 12:59:30;;;;;;;3.30;3.00;;;;;;;26.31;45.08;98899.02;433030;1270;110728;-42
2022/07/03 13:09:39;;;;;;;5.90;2.70;;;;;;;26.29;45.41;98895.70;433184;1270;108899;-44
2022/07/03 13:19:47;;;;;;;3.10;2.80;;;;;;;26.19;45.10;98884.61;433178;1270;98047;-41
2022/07/03 13:29:54;;;;;;;2.90;2.70;;;;;;;26.24;45.01;98868.99;433440;1270;111312;-44
2022/07/03 13:40:03;;;;;;;3.40;3.20;;;;;;;26.04;44.69;98860.73;433148;1269;108855;-42
2022/07/03 13:50:12;;;;;;;3.20;3.00;;;;;;;26.08;45.06;98859.90;433058;1269;97944;-41
2022/07/03 14:00:20;;;;;;;3.30;2.90;;;;;;;25.94;45.01;98849.56;433141;1270;111461;-41
2022/07/03 14:10:28;;;;;;;3.00;2.70;;;;;;;25.55;45.15;98849.11;433287;1270;108378;-43
2022/07/03 14:20:35;;;;;;;3.50;3.20;;;;;;;25.38;45.71;98840.02;433348;1269;97967;-40
2022/07/03 14:41:08;;;;;;;3.20;2.90;;;;;;;26.20;45.34;98833.80;433242;1269;108780;-43
2022/07/03 14:51:15;;;;;;;3.20;2.90;;;;;;;26.10;45.07;98825.39;433234;1269;97498;-40
2022/07/03 15:01:24;;;;;;;3.70;3.30;;;;;;;26.29;45.18;98821.33;433072;1270;111072;-43
2022/07/03 15:21:58;;;;;;;2.80;2.50;;;;;;;26.77;44.46;98794.65;433264;1269;97897;-44
2022/07/03 15:32:05;;;;;;;6.40;3.40;;;;;;;26.83;44.63;98790.52;433210;1269;111320;-42
2022/07/03 15:42:18;;;;;;;3.00;2.80;;;;;;;26.94;44.19;98788.14;433166;1269;108949;-43
2022/07/03 15:52:28;;;;;;;3.80;3.50;;;;;;;26.87;44.21;98776.08;433187;1269;96680;-41
2022/07/03 16:03:06;;;;;;;3.20;3.00;;;;;;;26.86;44.19;98765.73;433280;1270;111109;-42
2022/07/03 16:13:11;;;;;;;3.80;3.40;;;;;;;26.67;43.80;98772.81;433059;1269;108560;-43
2022/07/03 16:23:18;;;;;;;4.80;3.20;;;;;;;26.59;43.69;98765.06;433377;1269;96611;-42
2022/07/03 16:33:32;;;;;;;3.50;3.30;;;;;;;26.51;43.79;98765.64;433357;1269;111262;-42
2022/07/03 16:53:47;;;;;;;2.90;2.70;;;;;;;26.27;43.51;98761.45;433155;1269;97930;-42
2022/07/03 17:03:56;;;;;;;3.30;3.00;;;;;;;25.73;44.19;98760.26;433316;1270;111111;-43
2022/07/03 17:14:03;;;;;;;3.70;3.30;;;;;;;25.41;44.49;98753.92;433347;1269;107621;-42
2022/07/03 17:24:11;;;;;;;4.60;3.40;;;;;;;25.23;45.19;98744.34;433186;1269;97925;-42
2022/07/03 17:34:22;;;;;;;3.80;3.50;;;;;;;25.00;45.47;98749.11;433357;1270;111537;-41
2022/07/03 17:44:34;;;;;;;5.20;3.30;;;;;;;24.69;45.99;98748.96;432993;1269;109072;-42
2022/07/03 18:04:53;;;;;;;5.00;3.50;;;;;;;24.17;46.95;98745.35;433204;1269;111391;-42
2022/07/03 18:14:59;;;;;;;7.20;3.90;;;;;;;23.88;47.49;98739.08;433173;1269;109521;-42
2022/07/03 18:25:08;;;;;;;5.60;3.50;;;;;;;23.62;47.99;98745.15;433185;1269;97922;-42
2022/07/03 18:35:16;;;;;;;4.10;3.70;;;;;;;23.39;48.53;98749.67;433276;1270;111047;-42
2022/07/03 18:45:23;;;;;;;7.00;4.60;;;;;;;23.13;49.06;98753.16;433203;1269;106747;-40
2022/07/03 19:05:38;;;;;;;;;;;;;;;22.45;50.51;98773.31;433167;1269;97918;-41
2022/07/03 19:15:42;;;;;;;;;;;;;;;22.00;51.14;98777.76;433183;1269;111140;-46
2022/07/03 19:25:50;;;;;;;8.20;5.40;;;;;;;21.52;52.08;98789.60;433200;1269;98608;-42
2022/07/03 19:35:57;;;;;;;11.30;6.00;;;;;;;21.09;53.03;98792.44;433202;1269;98637;-45
2022/07/03 19:46:05;;;;;;;5.90;5.30;;;;;;;20.80;53.69;98794.28;433135;1269;110077;-45
2022/07/03 19:56:11;;;;;;;;;;;;;;;20.54;54.36;98791.39;432948;1270;108833;-44
2022/07/03 20:06:19;;;;;;;10.10;6.60;;;;;;;20.19;54.96;98798.86;433205;1270;97536;-43
2022/07/03 20:16:26;;;;;;;7.10;6.10;;;;;;;19.97;55.50;98799.05;432992;1269;111085;-47
2022/07/03 20:26:35;;;;;;;6.30;5.80;;;;;;;19.91;56.14;98797.66;433103;1269;108645;-44
2022/07/03 20:36:43;;;;;;;7.40;6.20;;;;;;;19.74;56.66;98798.40;432922;1269;97892;-42
2022/07/03 20:46:50;;;;;;;6.60;5.00;;;;;;;19.66;57.06;98803.95;432959;1269;111034;-41
2022/07/03 20:56:57;;;;;;;7.30;6.40;;;;;;;19.62;57.36;98802.16;432955;1269;449632;-40
2022/07/03 21:07:04;;;;;;;14.20;10.00;;;;;;;19.55;57.73;98796.27;433105;1269;97987;-43
2022/07/03 21:17:11;;;;;;;13.60;9.50;;;;;;;19.42;58.09;98794.88;433099;1270;110730;-44
2022/07/03 21:27:17;;;;;;;;;;;;;;;19.22;58.68;98795.02;433112;1269;106943;-42
2022/07/03 21:37:24;;;;;;;10.50;8.20;;;;;;;19.03;59.15;98789.39;432895;1270;97886;-45
2022/07/03 21:47:32;;;;;;;9.00;7.80;;;;;;;18.94;59.63;98783.09;433006;1270;108692;-41
2022/07/03 21:57:39;;;;;;;8.20;7.10;;;;;;;18.80;60.27;98778.52;433155;1270;97890;-43
2022/07/03 22:07:46;;;;;;;6.80;6.00;;;;;;;18.66;60.41;98783.77;432980;1269;97926;-44
2022/07/03 22:17:54;;;;;;;6.60;6.00;;;;;;;18.47;60.63;98778.61;433057;1269;108828;-43
2022/07/03 22:28:01;;;;;;;8.80;7.80;;;;;;;18.27;61.25;98781.07;433194;1270;97910;-44
2022/07/03 22:38:09;;;;;;;10.90;9.00;;;;;;;18.09;61.69;98779.09;432966;1270;111081;-42
2022/07/03 22:48:16;;;;;;;10.00;7.70;;;;;;;17.92;62.06;98773.73;433082;1269;109559;-41
2022/07/03 22:58:23;;;;;;;10.90;7.60;;;;;;;17.78;62.46;98770.98;433084;1269;97910;-40
2022/07/03 23:08:31;;;;;;;8.00;7.10;;;;;;;17.74;63.09;98771.77;433098;1269;111166;-45
2022/07/03 23:18:38;;;;;;;10.80;8.40;;;;;;;17.72;63.42;98763.75;433303;1270;108845;-41
2022/07/03 23:28:45;;;;;;;9.50;8.50;;;;;;;17.55;64.05;98759.77;432986;1270;98269;-42
2022/07/03 23:38:53;;;;;;;9.40;7.90;;;;;;;17.37;64.29;98749.23;433153;1270;111051;-40
2022/07/03 23:59:24;;;;;;;11.90;8.60;;;;;;;17.00;65.09;98738.00;432920;1270;97893;-42
